Terminal Aerodrome Forecast
Issued by NWS Lake Charles, LA

Home | Current Version | Previous Version | Text Only | Print | Product List | Glossary On
Versions: 1 2 3 4 5 6 7 8 9 10 11 12 13 14 15 16
000
FTUS44 KLCH 222300
TAFLCH
TAF
KLCH 222321Z 2300/2324 18006KT P6SM VCTS FEW035CB SCT200
     FM230100 VRB02KT P6SM FEW030
     FM231800 22005KT P6SM FEW050=

USA.gov is the U.S. government's official web portal to all federal, state and local government web resources and services.